Flight Track Log - Related Links

Times and Time Zones

All times are in EDT time to prevent confusion due to time zone crossing. See the ASQ4951 flight status page for this flight to view local times or setup timezone preferences in your user account.

Time Position Orientation Groundspeed Altitude Reporting Facility
EDT Latitude Longitude Course Direction KTS MPH feet Rate Location/Type
Sat 04:26:34 PM 34.8483 -82.2872 260° West 171 197 4,200  Level Atlanta Center
Sat 04:27:34 PM 34.8367 -82.3661 260° West 189 217 6,100 2,200 Climbing Atlanta Center
Sat 04:28:34 PM 34.8253 -82.4497 261° West 231 266 8,600 2,400 Climbing Atlanta Center
Sat 04:29:34 PM 34.8119 -82.5386 260° West 259 298 10,900 1,700 Climbing Atlanta Center
Sat 04:30:34 PM 34.7964 -82.6400 259° West 283 326 12,000 1,500 Climbing Atlanta Center
Sat 04:31:34 PM 34.7789 -82.7542 259° West 320 368 13,900 1,950 Climbing Atlanta Center
Sat 04:32:34 PM 34.7486 -82.8583 251° West 335 386 15,900 2,050 Climbing Atlanta Center
Sat 04:33:34 PM 34.6889 -82.9500 232° Southwest 340 391 18,000 2,050 Climbing Atlanta Center
Sat 04:34:34 PM 34.6272 -83.0392 230° Southwest 351 404 20,000 1,700 Climbing Atlanta Center
Sat 04:35:34 PM 34.5672 -83.1281 231° Southwest 351 404 21,400 1,000 Climbing Atlanta Center
Sat 04:36:34 PM 34.5033 -83.2194 230° Southwest 357 411 22,000 300 Climbing Atlanta Center
Sat 04:37:34 PM 34.4369 -83.3211 232° Southwest 377 434 22,000 -650 Level Atlanta Center
Sat 04:38:34 PM 34.3686 -83.4247 231° Southwest 377 434 20,700 -1,550 Descending Atlanta Center
Sat 04:39:34 PM 34.3128 -83.5106 232° Southwest 385 443 18,900 -1,900 Descending Atlanta Center
Sat 04:40:34 PM 34.2506 -83.5989 230° Southwest 362 417 16,900 -2,000 Descending Atlanta Center
Sat 04:41:34 PM 34.1608 -83.6497 205° Southwest 347 399 14,900 -2,000 Descending Atlanta Center
Sat 04:42:34 PM 34.0756 -83.6978 205° Southwest 347 399 12,900 -1,550 Descending Atlanta Center
Sat 04:43:34 PM 34.0214 -83.7781 231° Southwest 318 366 11,800 -1,100 Descending Atlanta Center
Sat 04:44:34 PM 33.9944 -83.8608 249° West 286 329 10,700 -1,075 Descending Atlanta Center
Sat 04:45:20 PM 33.9667 -83.9333 245° Southwest 273 314 9,900 -911 Descending Atlanta TRACON
Sat 04:46:26 PM 33.9333 -84.0167 244° Southwest 262 302 9,000 -900 Descending Atlanta TRACON
Sat 04:47:20 PM 33.8667 -84.0500 203° Southwest 275 316 8,100 -1,526 Descending Atlanta TRACON
Sat 04:48:20 PM 33.8000 -84.0833 203° Southwest 269 310 6,100 -1,579 Descending Atlanta TRACON
Sat 04:49:14 PM 33.7333 -84.1167 203° Southwest 263 303 5,100 -955 Descending Atlanta TRACON
Sat 04:50:32 PM 33.6833 -84.1833 228° Southwest 223 257 4,000 -857 Descending Atlanta TRACON
Sat 04:51:20 PM 33.6667 -84.2333 248° West 196 226 3,300 -722 Descending Atlanta TRACON
Sat 04:52:20 PM 33.6500 -84.3000 253° West 191 220 2,700 -650 Descending Atlanta TRACON
Sat 04:53:20 PM 33.6500 -84.3500 270° West 157 181 2,000 -714 Descending Atlanta TRACON
Sat 04:54:26 PM 33.6500 -84.4000 270° West 133 153 1,200 -727 Descending Atlanta TRACON
Sat 04:56:00 PM 33.6367 -84.4279 270° West  Level Estimated
Sat 05:03:00 PM 33.6367 -84.4279 64° Northeast  Level Estimated

Login

Don't have an account? Register now (free) for customized features, flight alerts, and more!